Anastasia Island, Florida
Current Conditions -  °F | °C
As of 1:14 AM on Monday 24 Nov 2014 (Local Time) from KSGJ Reporting Station
Broken Clouds Broken Clouds  
Wind Chill: 72°   Ceiling: 1400
Heat Index: 72°   Visibility: 10mi
Dew Point: 70°   Wind: 5mph
Humidity: 94%   Direction: 200°SSW
Pressure: 29.9"   Gusts: NA
Location:  29.8475°N, 81.2787°W
Report Text: KSGJ 240614Z AUTO 20004KT 10SM BKN014 22/21 A2990 RMK AO2
Loading
Personal Weather Stations






























Interactive Weather Map New forecast layout! Learn more

10-Day Weather Forecast

Advertisements
Track Severe Weather on mobile